Time;durP1;ratioP1;P1;durP2;ratioP2;P2;SDS_P1;SDS_P2;PMS_P1;PMS_P2;Temp;Humidity;BMP_temperature;BMP_pressure;BME280_temperature;BME280_humidity;BME280_pressure;Samples;Min_cycle;Max_cycle;Signal;HPM_P1;HPM_P2
2023/01/10 00:01:27;;;;;;;12.90;3.33;;;;;;;;;;5044846;28;20060;-64
2023/01/10 00:03:53;;;;;;;14.43;3.17;;;;;;;;;;5049962;28;20036;-64
2023/01/10 00:06:19;;;;;;;15.80;5.30;;;;;;;;;;5044804;28;20140;-64
2023/01/10 00:08:45;;;;;;;11.60;2.90;;;;;;;;;;5048178;28;20581;-63
2023/01/10 00:13:56;;;;;;;13.27;2.90;;;;;;;;;;5047378;28;20082;-64
2023/01/10 00:16:23;;;;;;;13.27;3.90;;;;;;;;;;5040904;28;20608;-64
2023/01/10 00:18:49;;;;;;;13.90;3.92;;;;;;;;;;5046176;28;20048;-64
2023/01/10 00:21:15;;;;;;;10.93;3.20;;;;;;;;;;5045428;28;20094;-63
2023/01/10 00:23:42;;;;;;;8.23;2.90;;;;;;;;;;5050571;28;20049;-64
2023/01/10 00:26:09;;;;;;;15.38;5.05;;;;;;;;;;5048442;28;20045;-64
2023/01/10 00:28:38;;;;;;;15.15;3.50;;;;;;;;;;5034486;28;20507;-64
2023/01/10 00:31:05;;;;;;;12.02;3.20;;;;;;;;;;5050143;28;20099;-63
2023/01/10 00:33:34;;;;;;;15.45;3.28;;;;;;;;;;5049444;28;20079;-63
2023/01/10 00:36:01;;;;;;;15.65;3.42;;;;;;;;;;5042092;28;20080;-64
2023/01/10 00:38:27;;;;;;;17.23;4.30;;;;;;;;;;5035170;28;20052;-64
2023/01/10 00:40:53;;;;;;;12.10;3.25;;;;;;;;;;5049454;28;20051;-64
2023/01/10 00:46:04;;;;;;;15.43;3.90;;;;;;;;;;5047839;28;20095;-63
2023/01/10 00:48:30;;;;;;;12.63;3.28;;;;;;;;;;5040488;28;20041;-64
2023/01/10 00:50:56;;;;;;;17.00;2.72;;;;;;;;;;5041038;28;20033;-64
2023/01/10 00:53:22;;;;;;;19.02;3.90;;;;;;;;;;5033694;28;20040;-64
2023/01/10 00:55:48;;;;;;;15.13;3.55;;;;;;;;;;5034125;28;20040;-64
2023/01/10 00:58:15;;;;;;;21.65;4.43;;;;;;;;;;5037439;28;20041;-64
2023/01/10 01:00:45;;;;;;;15.82;3.72;;;;;;;;;;5034116;28;20415;-64
2023/01/10 01:03:11;;;;;;;15.15;3.22;;;;;;;;;;5049179;28;20098;-64
2023/01/10 01:05:41;;;;;;;25.55;3.72;;;;;;;;;;5040836;28;20049;-64
2023/01/10 01:08:07;;;;;;;17.55;4.15;;;;;;;;;;5040081;28;20042;-63
2023/01/10 01:10:33;;;;;;;15.48;3.45;;;;;;;;;;5038823;28;20037;-64
2023/01/10 01:13:05;;;;;;;15.90;3.80;;;;;;;;;;5038298;28;20037;-64
2023/01/10 01:15:31;;;;;;;23.83;3.90;;;;;;;;;;5047369;28;20048;-64
2023/01/10 01:17:57;;;;;;;18.55;3.08;;;;;;;;;;5042069;28;20109;-64
2023/01/10 01:20:23;;;;;;;15.23;4.07;;;;;;;;;;5043944;28;20037;-64
2023/01/10 01:22:48;;;;;;;11.90;3.63;;;;;;;;;;5042506;28;20298;-64
2023/01/10 01:25:15;;;;;;;17.88;3.45;;;;;;;;;;5036188;28;20036;-64
2023/01/10 01:27:41;;;;;;;12.93;2.88;;;;;;;;;;5042512;28;20131;-63
2023/01/10 01:30:07;;;;;;;14.45;3.58;;;;;;;;;;5036263;28;20603;-64
2023/01/10 01:32:33;;;;;;;15.50;3.45;;;;;;;;;;5042736;28;20064;-64
2023/01/10 01:34:59;;;;;;;18.00;3.25;;;;;;;;;;5047971;28;20052;-64
2023/01/10 01:37:25;;;;;;;14.25;3.20;;;;;;;;;;5040935;28;20042;-63
2023/01/10 01:39:51;;;;;;;15.90;3.30;;;;;;;;;;5049844;28;20044;-64
2023/01/10 01:42:21;;;;;;;17.85;3.17;;;;;;;;;;5045218;28;20041;-63
2023/01/10 01:45:13;;;;;;;18.95;3.75;;;;;;;;;;5047398;28;20075;-63
2023/01/10 01:47:47;;;;;;;19.92;3.40;;;;;;;;;;5042632;28;20046;-64
2023/01/10 01:50:34;;;;;;;18.23;3.25;;;;;;;;;;5038250;28;20068;-63
2023/01/10 01:53:01;;;;;;;14.82;3.10;;;;;;;;;;5041177;28;20037;-64
2023/01/10 01:55:30;;;;;;;13.32;3.00;;;;;;;;;;5042384;28;20072;-64
2023/01/10 01:57:57;;;;;;;11.40;3.42;;;;;;;;;;5041540;28;20048;-63
2023/01/10 02:00:23;;;;;;;22.63;4.30;;;;;;;;;;5044544;28;20044;-64
2023/01/10 02:02:50;;;;;;;13.77;3.47;;;;;;;;;;5045872;28;20048;-64
2023/01/10 02:05:18;;;;;;;12.27;3.00;;;;;;;;;;5048814;28;20502;-64
2023/01/10 02:07:47;;;;;;;14.65;3.72;;;;;;;;;;5049205;28;20064;-64
2023/01/10 02:10:15;;;;;;;16.42;3.47;;;;;;;;;;5041867;28;20052;-64
2023/01/10 02:12:42;;;;;;;18.70;3.80;;;;;;;;;;5034648;28;20053;-64
2023/01/10 02:15:09;;;;;;;11.43;2.95;;;;;;;;;;5049855;28;20029;-63
2023/01/10 02:20:08;;;;;;;16.30;3.67;;;;;;;;;;5029637;28;20071;-70
2023/01/10 02:22:53;;;;;;;15.73;3.17;;;;;;;;;;5034548;28;20557;-69
2023/01/10 02:25:22;;;;;;;14.20;3.47;;;;;;;;;;5025900;28;20491;-70
2023/01/10 02:28:11;;;;;;;12.52;3.38;;;;;;;;;;5032831;28;20127;-70
2023/01/10 02:30:44;;;;;;;16.17;3.20;;;;;;;;;;5032812;28;20071;-69
2023/01/10 02:33:19;;;;;;;14.88;4.35;;;;;;;;;;5026497;28;20037;-70
2023/01/10 02:35:53;;;;;;;23.88;4.15;;;;;;;;;;5022612;28;20038;-69
2023/01/10 02:38:28;;;;;;;17.05;3.90;;;;;;;;;;5028295;28;20128;-69
2023/01/10 02:41:02;;;;;;;12.32;3.22;;;;;;;;;;5023166;28;20183;-70
2023/01/10 02:43:32;;;;;;;15.20;3.38;;;;;;;;;;5020261;28;20060;-69
2023/01/10 02:46:10;;;;;;;18.95;3.42;;;;;;;;;;5021699;28;20466;-69
2023/01/10 02:48:36;;;;;;;16.38;3.47;;;;;;;;;;5032771;28;20095;-69
2023/01/10 02:51:14;;;;;;;17.85;3.53;;;;;;;;;;5027514;28;20038;-70
2023/01/10 02:53:42;;;;;;;17.95;3.83;;;;;;;;;;5030318;28;20399;-69
2023/01/10 02:56:11;;;;;;;11.43;2.90;;;;;;;;;;5033428;28;20041;-70
2023/01/10 02:58:40;;;;;;;14.88;3.15;;;;;;;;;;5027565;28;20037;-70
2023/01/10 03:01:25;;;;;;;16.23;4.05;;;;;;;;;;5024496;28;20041;-70
2023/01/10 03:03:54;;;;;;;16.88;3.70;;;;;;;;;;5026255;28;20120;-70
2023/01/10 03:06:29;;;;;;;18.17;3.20;;;;;;;;;;5016228;28;20037;-70
2023/01/10 03:09:06;;;;;;;18.80;3.65;;;;;;;;;;5024952;28;20033;-70
2023/01/10 03:11:40;;;;;;;11.10;3.00;;;;;;;;;;5034464;28;20037;-69
2023/01/10 03:14:21;;;;;;;13.05;4.22;;;;;;;;;;5024472;28;20120;-69
2023/01/10 03:16:50;;;;;;;11.70;2.83;;;;;;;;;;5022338;28;20037;-70
2023/01/10 03:19:19;;;;;;;16.80;3.38;;;;;;;;;;5023126;28;20504;-70
2023/01/10 03:21:47;;;;;;;14.52;3.17;;;;;;;;;;5032125;28;20116;-70
2023/01/10 03:24:18;;;;;;;16.35;3.85;;;;;;;;;;5026596;28;20033;-69
2023/01/10 03:26:44;;;;;;;16.48;3.70;;;;;;;;;;5016155;28;20100;-69
2023/01/10 03:29:11;;;;;;;11.93;3.30;;;;;;;;;;5032087;28;20450;-70
2023/01/10 03:31:44;;;;;;;16.65;3.28;;;;;;;;;;5025401;28;20038;-70
2023/01/10 03:34:10;;;;;;;20.15;3.45;;;;;;;;;;5024020;28;20037;-70
2023/01/10 03:36:59;;;;;;;18.45;3.25;;;;;;;;;;5030047;28;20034;-70
2023/01/10 03:39:41;;;;;;;15.55;3.63;;;;;;;;;;5016752;28;20054;-70
2023/01/10 03:42:10;;;;;;;13.30;3.22;;;;;;;;;;5022051;28;20069;-70
2023/01/10 03:44:51;;;;;;;21.25;3.80;;;;;;;;;;5029379;28;20048;-70
2023/01/10 03:47:28;;;;;;;13.23;3.08;;;;;;;;;;5028209;28;20050;-70
2023/01/10 03:49:57;;;;;;;11.98;2.83;;;;;;;;;;5021137;28;20040;-69
2023/01/10 03:52:24;;;;;;;10.38;2.90;;;;;;;;;;5026133;28;20033;-70
2023/01/10 03:54:50;;;;;;;16.35;3.15;;;;;;;;;;5029713;28;20044;-70
2023/01/10 03:57:21;;;;;;;13.32;2.67;;;;;;;;;;5016639;28;20057;-70
2023/01/10 03:59:49;;;;;;;17.75;3.10;;;;;;;;;;5021720;28;20046;-70
2023/01/10 04:02:15;;;;;;;11.13;2.47;;;;;;;;;;5030279;28;20091;-70
2023/01/10 04:04:41;;;;;;;11.40;3.08;;;;;;;;;;5023413;28;20507;-70
2023/01/10 04:07:07;;;;;;;12.45;2.92;;;;;;;;;;5022971;28;20041;-70
2023/01/10 04:09:33;;;;;;;12.20;2.72;;;;;;;;;;5020458;28;20041;-69
2023/01/10 04:11:59;;;;;;;14.30;2.65;;;;;;;;;;5030758;28;20479;-69
2023/01/10 04:14:26;;;;;;;12.60;2.67;;;;;;;;;;5028622;28;20048;-70
2023/01/10 04:16:52;;;;;;;12.68;3.05;;;;;;;;;;5014613;28;20053;-70
2023/01/10 04:19:18;;;;;;;21.48;3.40;;;;;;;;;;5015005;28;20400;-69
2023/01/10 04:21:44;;;;;;;13.75;2.88;;;;;;;;;;5025432;28;20037;-70
2023/01/10 04:24:10;;;;;;;12.27;3.35;;;;;;;;;;5018712;28;20041;-70
2023/01/10 04:26:36;;;;;;;13.35;3.13;;;;;;;;;;5022348;28;20044;-69
2023/01/10 04:29:04;;;;;;;9.73;2.50;;;;;;;;;;5019269;28;20038;-70
2023/01/10 04:31:30;;;;;;;13.75;3.00;;;;;;;;;;5027910;28;20053;-70
2023/01/10 04:33:56;;;;;;;13.55;2.92;;;;;;;;;;5021814;28;20407;-70
2023/01/10 04:36:22;;;;;;;16.75;3.03;;;;;;;;;;5024381;28;20041;-70
2023/01/10 04:38:49;;;;;;;16.75;3.50;;;;;;;;;;5021008;28;20038;-70
2023/01/10 04:41:15;;;;;;;16.65;3.25;;;;;;;;;;5017404;28;20046;-70
2023/01/10 04:43:40;;;;;;;18.95;3.70;;;;;;;;;;5026477;28;20613;-71
2023/01/10 04:46:06;;;;;;;20.10;2.92;;;;;;;;;;5012365;28;20037;-71
2023/01/10 04:48:33;;;;;;;11.18;2.97;;;;;;;;;;5023517;28;20080;-71
2023/01/10 04:50:59;;;;;;;13.23;3.50;;;;;;;;;;5028117;28;20117;-70
2023/01/10 04:53:25;;;;;;;16.50;2.97;;;;;;;;;;5030149;28;20042;-70
2023/01/10 04:55:51;;;;;;;18.45;3.28;;;;;;;;;;5023110;28;20079;-70
2023/01/10 04:58:17;;;;;;;18.83;3.00;;;;;;;;;;5018614;28;20633;-70
2023/01/10 05:00:43;;;;;;;15.35;3.10;;;;;;;;;;5021535;28;20148;-70
2023/01/10 05:03:09;;;;;;;19.75;3.30;;;;;;;;;;5017864;28;20034;-70
2023/01/10 05:05:35;;;;;;;17.55;3.67;;;;;;;;;;5022335;28;20045;-70
2023/01/10 05:08:01;;;;;;;11.60;3.28;;;;;;;;;;5027349;28;20046;-70
2023/01/10 05:10:27;;;;;;;18.98;2.92;;;;;;;;;;5021056;28;20041;-70
2023/01/10 05:12:53;;;;;;;16.75;3.95;;;;;;;;;;5015870;28;20049;-70
2023/01/10 05:15:21;;;;;;;15.38;3.40;;;;;;;;;;5024265;28;20067;-69
2023/01/10 05:17:47;;;;;;;19.15;3.10;;;;;;;;;;5024404;28;20037;-70
2023/01/10 05:20:13;;;;;;;17.02;3.28;;;;;;;;;;5021346;28;20055;-69
2023/01/10 05:22:39;;;;;;;18.80;3.88;;;;;;;;;;5023263;28;20048;-69
2023/01/10 05:25:05;;;;;;;18.42;3.50;;;;;;;;;;5026671;28;20092;-70
2023/01/10 05:27:31;;;;;;;18.67;3.28;;;;;;;;;;5025741;28;20048;-70
2023/01/10 05:29:57;;;;;;;22.27;4.20;;;;;;;;;;5025495;28;20045;-69
2023/01/10 05:32:28;;;;;;;13.68;4.03;;;;;;;;;;5023378;28;20285;-70
2023/01/10 05:34:54;;;;;;;15.55;3.38;;;;;;;;;;5017067;28;20046;-70
2023/01/10 05:37:20;;;;;;;17.13;3.38;;;;;;;;;;5024659;28;20050;-70
2023/01/10 05:39:46;;;;;;;18.10;3.70;;;;;;;;;;5026771;28;20412;-68
2023/01/10 05:42:12;;;;;;;22.98;3.40;;;;;;;;;;5025471;28;20068;-69
2023/01/10 05:44:38;;;;;;;19.20;3.60;;;;;;;;;;5018678;28;20050;-70
2023/01/10 05:47:04;;;;;;;14.38;3.75;;;;;;;;;;5017635;28;20050;-70
2023/01/10 05:49:30;;;;;;;20.88;3.97;;;;;;;;;;5016904;28;20045;-70
2023/01/10 05:51:56;;;;;;;15.95;3.67;;;;;;;;;;5020063;28;20395;-70
2023/01/10 05:54:22;;;;;;;13.30;3.97;;;;;;;;;;5012195;28;20163;-70
2023/01/10 05:56:48;;;;;;;18.50;3.78;;;;;;;;;;5031240;28;20106;-70
2023/01/10 05:59:14;;;;;;;17.67;3.58;;;;;;;;;;5027655;28;20041;-70
2023/01/10 06:01:40;;;;;;;16.50;3.22;;;;;;;;;;5027268;28;20411;-69
2023/01/10 06:04:06;;;;;;;15.68;4.05;;;;;;;;;;5015361;28;20042;-70
2023/01/10 06:06:33;;;;;;;18.13;4.15;;;;;;;;;;5011503;28;20045;-70
2023/01/10 06:08:59;;;;;;;22.25;3.90;;;;;;;;;;5011558;28;20113;-70
2023/01/10 06:11:28;;;;;;;21.45;3.60;;;;;;;;;;5016862;28;20488;-70
2023/01/10 06:13:55;;;;;;;21.58;3.72;;;;;;;;;;5028680;28;20042;-70
2023/01/10 06:16:21;;;;;;;18.33;3.90;;;;;;;;;;5028603;28;20132;-70
2023/01/10 06:18:47;;;;;;;12.18;3.47;;;;;;;;;;5027900;28;20037;-70
2023/01/10 06:21:13;;;;;;;16.33;3.75;;;;;;;;;;5019049;28;20096;-70
2023/01/10 06:23:39;;;;;;;28.33;4.20;;;;;;;;;;5024529;28;20035;-70
2023/01/10 06:26:05;;;;;;;19.50;4.10;;;;;;;;;;5022286;28;20034;-70
2023/01/10 06:28:31;;;;;;;19.73;3.85;;;;;;;;;;5017675;28;20054;-70
2023/01/10 06:30:57;;;;;;;18.17;3.90;;;;;;;;;;5019373;28;20413;-69
2023/01/10 06:33:23;;;;;;;17.90;3.53;;;;;;;;;;5022043;28;20042;-70
2023/01/10 06:35:49;;;;;;;15.68;3.88;;;;;;;;;;5019849;28;20092;-70
2023/01/10 06:38:15;;;;;;;20.92;3.67;;;;;;;;;;5013866;28;20060;-70
2023/01/10 06:40:41;;;;;;;14.52;3.47;;;;;;;;;;5020746;28;20081;-70
2023/01/10 06:43:07;;;;;;;15.70;4.05;;;;;;;;;;5024145;28;20045;-70
2023/01/10 06:45:33;;;;;;;18.50;3.58;;;;;;;;;;5024079;28;20397;-70
2023/01/10 06:47:59;;;;;;;15.48;3.53;;;;;;;;;;5025888;28;20113;-70
2023/01/10 06:50:25;;;;;;;15.88;3.80;;;;;;;;;;5026539;28;20037;-69
2023/01/10 06:52:55;;;;;;;18.10;4.20;;;;;;;;;;5025276;28;20077;-70
2023/01/10 06:55:22;;;;;;;22.80;4.15;;;;;;;;;;5015517;28;20069;-70
2023/01/10 06:57:48;;;;;;;17.85;3.65;;;;;;;;;;5031053;28;20042;-70
2023/01/10 07:00:14;;;;;;;21.42;3.88;;;;;;;;;;5030698;28;20045;-70
2023/01/10 07:02:40;;;;;;;12.20;3.33;;;;;;;;;;5028235;28;20110;-70
2023/01/10 07:05:06;;;;;;;26.67;4.35;;;;;;;;;;5024932;28;20125;-69
2023/01/10 07:07:32;;;;;;;18.73;4.38;;;;;;;;;;5018047;28;20037;-70
2023/01/10 07:09:58;;;;;;;17.80;4.25;;;;;;;;;;5021588;28;20044;-70
2023/01/10 07:12:24;;;;;;;18.67;4.15;;;;;;;;;;5022130;28;20802;-70
2023/01/10 07:14:50;;;;;;;14.52;3.95;;;;;;;;;;5023661;28;20233;-70
2023/01/10 07:17:16;;;;;;;15.77;3.50;;;;;;;;;;5027011;28;20041;-69
2023/01/10 07:19:42;;;;;;;23.08;4.15;;;;;;;;;;5024282;28;20400;-69
2023/01/10 07:22:08;;;;;;;17.30;3.67;;;;;;;;;;5023864;28;20129;-68
2023/01/10 07:24:34;;;;;;;15.05;3.90;;;;;;;;;;5020653;28;20184;-69
2023/01/10 07:27:00;;;;;;;18.92;4.18;;;;;;;;;;5022696;28;20057;-70
2023/01/10 07:29:26;;;;;;;14.75;3.78;;;;;;;;;;5023714;28;20042;-70
2023/01/10 07:31:52;;;;;;;15.85;3.85;;;;;;;;;;5027814;28;20041;-70
2023/01/10 07:34:18;;;;;;;17.67;4.35;;;;;;;;;;5027396;28;20037;-69
2023/01/10 07:36:44;;;;;;;11.68;4.05;;;;;;;;;;5029638;28;20045;-70
2023/01/10 07:39:10;;;;;;;17.58;4.25;;;;;;;;;;5026569;28;20407;-70
2023/01/10 07:41:36;;;;;;;22.50;4.63;;;;;;;;;;5030565;28;20041;-70
2023/01/10 07:44:02;;;;;;;23.77;4.88;;;;;;;;;;5029577;28;20065;-69
2023/01/10 07:46:28;;;;;;;24.08;4.47;;;;;;;;;;5020736;28;20432;-69
2023/01/10 07:48:54;;;;;;;21.60;4.90;;;;;;;;;;5016528;28;20076;-69
2023/01/10 07:51:20;;;;;;;22.25;4.78;;;;;;;;;;5025092;28;20401;-69
2023/01/10 07:53:46;;;;;;;22.08;4.15;;;;;;;;;;5023447;28;20667;-69
2023/01/10 07:56:12;;;;;;;15.57;3.97;;;;;;;;;;5022329;28;20033;-70
2023/01/10 07:58:38;;;;;;;23.10;4.45;;;;;;;;;;5025212;28;20073;-69
2023/01/10 08:01:05;;;;;;;25.42;5.10;;;;;;;;;;5031132;28;20045;-69
2023/01/10 08:03:32;;;;;;;17.58;4.18;;;;;;;;;;5027885;28;20088;-69
2023/01/10 08:06:02;;;;;;;24.48;5.47;;;;;;;;;;5018809;28;20120;-69
2023/01/10 08:08:28;;;;;;;16.15;4.80;;;;;;;;;;5023780;28;20052;-69
2023/01/10 08:10:54;;;;;;;24.42;4.50;;;;;;;;;;5017276;28;20095;-69
2023/01/10 08:13:20;;;;;;;23.45;4.60;;;;;;;;;;5022324;28;20037;-69
2023/01/10 08:15:48;;;;;;;20.23;4.57;;;;;;;;;;5019590;28;20037;-69
2023/01/10 08:18:14;;;;;;;20.80;4.63;;;;;;;;;;5028098;22;20109;-64
2023/01/10 08:20:40;;;;;;;23.08;5.10;;;;;;;;;;5027909;28;20124;-64
2023/01/10 08:23:06;;;;;;;26.92;5.07;;;;;;;;;;5030668;28;20410;-64
2023/01/10 08:25:32;;;;;;;23.08;4.97;;;;;;;;;;5030835;28;20033;-64
2023/01/10 08:27:58;;;;;;;15.90;4.38;;;;;;;;;;5021369;28;20099;-64
2023/01/10 08:30:24;;;;;;;22.45;4.97;;;;;;;;;;5028149;28;20368;-64
2023/01/10 08:32:51;;;;;;;19.02;4.40;;;;;;;;;;5029119;28;20044;-64
2023/01/10 08:35:17;;;;;;;27.45;5.25;;;;;;;;;;5028580;28;20045;-64
2023/01/10 08:37:43;;;;;;;17.25;4.30;;;;;;;;;;5032209;28;20042;-64
2023/01/10 08:40:09;;;;;;;19.20;4.78;;;;;;;;;;5028262;28;20175;-64
2023/01/10 08:42:35;;;;;;;19.95;5.00;;;;;;;;;;5031230;28;20046;-65
2023/01/10 08:45:01;;;;;;;25.35;4.68;;;;;;;;;;5030225;28;20037;-64
2023/01/10 08:47:28;;;;;;;15.13;4.15;;;;;;;;;;5032889;28;20048;-64
2023/01/10 08:49:54;;;;;;;21.65;4.50;;;;;;;;;;5030893;28;20044;-64
2023/01/10 08:52:20;;;;;;;21.08;5.43;;;;;;;;;;5029388;28;20064;-64
2023/01/10 08:54:46;;;;;;;25.83;4.80;;;;;;;;;;5030571;28;20127;-64
2023/01/10 08:57:12;;;;;;;24.00;4.35;;;;;;;;;;5028218;28;20153;-64
2023/01/10 08:59:38;;;;;;;21.45;4.47;;;;;;;;;;5028225;28;20045;-64
2023/01/10 09:02:07;;;;;;;19.00;4.38;;;;;;;;;;5006445;28;20030;-64
2023/01/10 09:04:33;;;;;;;19.55;4.80;;;;;;;;;;5021906;28;20038;-64
2023/01/10 09:06:59;;;;;;;18.08;4.07;;;;;;;;;;5018932;28;20373;-64
2023/01/10 09:09:26;;;;;;;24.70;4.50;;;;;;;;;;5025243;28;20578;-64
2023/01/10 09:11:52;;;;;;;20.48;4.50;;;;;;;;;;5018864;28;20130;-64
2023/01/10 09:14:18;;;;;;;24.67;4.85;;;;;;;;;;5025676;28;20044;-65
2023/01/10 09:16:45;;;;;;;29.05;5.00;;;;;;;;;;5029371;28;20088;-64
2023/01/10 09:19:11;;;;;;;26.50;5.03;;;;;;;;;;5029912;28;20126;-64
2023/01/10 09:21:37;;;;;;;25.48;5.40;;;;;;;;;;5031010;28;20041;-64
2023/01/10 09:24:03;;;;;;;21.38;4.55;;;;;;;;;;5024290;28;20394;-64
2023/01/10 09:26:30;;;;;;;21.88;4.70;;;;;;;;;;5026017;28;20041;-64
2023/01/10 09:28:56;;;;;;;23.83;4.50;;;;;;;;;;5027760;28;20064;-64
2023/01/10 09:31:21;;;;;;;25.05;4.93;;;;;;;;;;5031671;28;20063;-65
2023/01/10 09:33:48;;;;;;;22.42;4.63;;;;;;;;;;5029110;28;20490;-64
2023/01/10 09:36:14;;;;;;;21.25;4.82;;;;;;;;;;5029687;28;20096;-64
2023/01/10 09:38:40;;;;;;;21.83;4.70;;;;;;;;;;5026892;28;20075;-64
2023/01/10 09:41:19;;;;;;;20.75;4.93;;;;;;;;;;5031024;28;20048;-65
2023/01/10 09:43:45;;;;;;;22.92;5.03;;;;;;;;;;5029096;28;20116;-64
2023/01/10 09:46:20;;;;;;;20.33;4.63;;;;;;;;;;5030483;28;20116;-64
2023/01/10 09:48:47;;;;;;;22.63;5.35;;;;;;;;;;5027251;28;20064;-64
2023/01/10 09:51:32;;;;;;;30.35;5.35;;;;;;;;;;5026933;28;20041;-64
2023/01/10 09:54:00;;;;;;;21.77;5.47;;;;;;;;;;5025360;28;20041;-64
2023/01/10 09:56:27;;;;;;;25.10;5.80;;;;;;;;;;5027229;28;20039;-64
2023/01/10 09:58:53;;;;;;;26.23;5.82;;;;;;;;;;5030878;28;20065;-64
2023/01/10 10:01:22;;;;;;;30.27;6.97;;;;;;;;;;5025992;28;20242;-64
2023/01/10 10:03:53;;;;;;;24.75;6.22;;;;;;;;;;5030656;28;20076;-64
2023/01/10 10:06:21;;;;;;;25.25;7.20;;;;;;;;;;5024515;28;20381;-64
2023/01/10 10:08:47;;;;;;;23.25;6.10;;;;;;;;;;5022664;28;20042;-64
2023/01/10 10:11:25;;;;;;;28.92;7.07;;;;;;;;;;5030416;28;20049;-64
2023/01/10 10:13:57;;;;;;;27.52;7.50;;;;;;;;;;5017364;28;20045;-64
2023/01/10 10:16:41;;;;;;;29.45;6.95;;;;;;;;;;5023143;28;20037;-64
2023/01/10 10:19:18;;;;;;;26.80;7.70;;;;;;;;;;5023068;28;20434;-64
2023/01/10 10:21:44;;;;;;;28.33;6.78;;;;;;;;;;5027856;28;20476;-64
2023/01/10 10:24:25;;;;;;;18.48;7.22;;;;;;;;;;5026464;28;20045;-65
2023/01/10 10:27:10;;;;;;;25.67;7.90;;;;;;;;;;5024970;28;20037;-64
2023/01/10 10:29:56;;;;;;;29.25;7.60;;;;;;;;;;5030752;28;20056;-64
2023/01/10 10:32:34;;;;;;;22.77;6.03;;;;;;;;;;5020167;28;20045;-63
2023/01/10 10:35:07;;;;;;;30.63;7.95;;;;;;;;;;5027298;28;20037;-64
2023/01/10 10:37:35;;;;;;;31.15;7.88;;;;;;;;;;5024197;28;20041;-64
2023/01/10 10:40:15;;;;;;;29.75;7.53;;;;;;;;;;5025135;28;20491;-64
2023/01/10 10:42:42;;;;;;;25.88;6.97;;;;;;;;;;5021001;28;20184;-64
2023/01/10 10:45:17;;;;;;;29.70;9.30;;;;;;;;;;5022219;28;20119;-64
2023/01/10 10:47:48;;;;;;;28.77;11.82;;;;;;;;;;5034278;28;20056;-64
2023/01/10 10:50:14;;;;;;;;;;;;;;;;;;5035197;28;20056;-64
2023/01/10 10:52:41;;;;;;;21.25;7.25;;;;;;;;;;5031294;28;19917;-64
2023/01/10 10:55:13;;;;;;;25.73;7.38;;;;;;;;;;5032766;28;20112;-64
2023/01/10 10:57:39;;;;;;;21.48;7.50;;;;;;;;;;5027180;28;20044;-64
2023/01/10 11:00:07;;;;;;;28.88;7.97;;;;;;;;;;5032444;28;20060;-64
2023/01/10 11:02:39;;;;;;;20.48;6.90;;;;;;;;;;5031880;28;20041;-64
2023/01/10 11:05:15;;;;;;;32.78;6.50;;;;;;;;;;5026623;28;20037;-64
2023/01/10 11:07:41;;;;;;;32.03;7.70;;;;;;;;;;5034376;28;20041;-64
2023/01/10 11:12:46;;;;;;;23.70;6.82;;;;;;;;;;5030475;28;22112;-64
2023/01/10 11:15:32;;;;;;;29.70;6.72;;;;;;;;;;5032589;28;20052;-64
2023/01/10 11:18:04;;;;;;;25.15;5.95;;;;;;;;;;5031152;28;20132;-64
2023/01/10 11:20:31;;;;;;;22.65;6.00;;;;;;;;;;5032658;28;20041;-64
2023/01/10 11:22:57;;;;;;;22.77;5.57;;;;;;;;;;5028056;28;21129;-64
2023/01/10 11:25:23;;;;;;;31.50;6.78;;;;;;;;;;5030758;28;20033;-64
2023/01/10 11:27:51;;;;;;;23.77;5.60;;;;;;;;;;5022692;28;20544;-64
2023/01/10 11:30:25;;;;;;;21.35;5.55;;;;;;;;;;5034387;28;20103;-64
2023/01/10 11:32:52;;;;;;;33.05;5.68;;;;;;;;;;5029845;28;20087;-64
2023/01/10 11:35:24;;;;;;;26.30;6.18;;;;;;;;;;5029838;28;20072;-64
2023/01/10 11:38:09;;;;;;;20.67;4.80;;;;;;;;;;5030998;28;20045;-65
2023/01/10 11:40:37;;;;;;;21.17;5.30;;;;;;;;;;5013102;28;20045;-63
2023/01/10 11:43:23;;;;;;;18.23;4.95;;;;;;;;;;5030072;28;20109;-63
2023/01/10 11:45:53;;;;;;;27.27;5.43;;;;;;;;;;5031094;28;20095;-63
2023/01/10 11:48:23;;;;;;;24.85;5.80;;;;;;;;;;5030543;28;20042;-62
2023/01/10 11:50:50;;;;;;;25.27;5.32;;;;;;;;;;5023861;28;20061;-63
2023/01/10 11:53:37;;;;;;;12.52;3.65;;;;;;;;;;5030568;28;20929;-63
2023/01/10 11:56:05;;;;;;;20.02;5.07;;;;;;;;;;5025487;28;20029;-63
2023/01/10 11:58:32;;;;;;;22.70;5.18;;;;;;;;;;5030674;28;20525;-63
2023/01/10 12:00:58;;;;;;;22.23;4.95;;;;;;;;;;5029469;28;20044;-63
2023/01/10 12:03:27;;;;;;;21.17;5.88;;;;;;;;;;5029385;28;20044;-63
2023/01/10 12:05:58;;;;;;;17.92;5.22;;;;;;;;;;5016827;28;20112;-63
2023/01/10 12:08:35;;;;;;;22.75;4.80;;;;;;;;;;5024466;28;20435;-63
2023/01/10 12:11:02;;;;;;;20.40;4.70;;;;;;;;;;5028496;28;20043;-63
2023/01/10 12:13:30;;;;;;;20.08;4.75;;;;;;;;;;5026126;28;20033;-63
2023/01/10 12:16:25;;;;;;;22.15;4.57;;;;;;;;;;5028263;28;20037;-63
2023/01/10 12:18:53;;;;;;;23.98;4.93;;;;;;;;;;5012067;28;20067;-63
2023/01/10 12:21:21;;;;;;;25.88;5.68;;;;;;;;;;5026200;28;20073;-63
2023/01/10 12:23:48;;;;;;;24.75;5.15;;;;;;;;;;5024774;28;20056;-63
2023/01/10 12:26:15;;;;;;;18.77;4.72;;;;;;;;;;5030944;28;20099;-62
2023/01/10 12:28:48;;;;;;;20.77;4.95;;;;;;;;;;5030696;28;20040;-64
2023/01/10 12:31:14;;;;;;;22.70;4.88;;;;;;;;;;5028553;28;20099;-63
2023/01/10 12:33:45;;;;;;;26.90;5.72;;;;;;;;;;5030278;28;20041;-63
2023/01/10 12:36:30;;;;;;;18.27;4.88;;;;;;;;;;5031093;28;20056;-63
2023/01/10 12:39:05;;;;;;;18.50;4.53;;;;;;;;;;5031210;28;20056;-64
2023/01/10 12:44:34;;;;;;;19.23;4.53;;;;;;;;;;5029084;28;20099;-64
2023/01/10 12:47:04;;;;;;;18.98;4.72;;;;;;;;;;5029828;28;20042;-63
2023/01/10 12:49:50;;;;;;;19.65;4.90;;;;;;;;;;5026177;28;20128;-63
2023/01/10 12:52:20;;;;;;;18.77;4.25;;;;;;;;;;5028243;28;20510;-64
2023/01/10 12:54:47;;;;;;;18.23;4.68;;;;;;;;;;5029400;28;20038;-63
2023/01/10 12:57:20;;;;;;;27.02;5.07;;;;;;;;;;5031645;28;20056;-63
2023/01/10 12:59:47;;;;;;;29.23;5.45;;;;;;;;;;5029997;28;20041;-63
2023/01/10 13:02:17;;;;;;;23.20;5.28;;;;;;;;;;5030681;28;20052;-63
2023/01/10 13:04:47;;;;;;;22.40;5.40;;;;;;;;;;5030887;28;20044;-63
2023/01/10 13:07:13;;;;;;;19.48;4.45;;;;;;;;;;5031088;28;20041;-63
2023/01/10 13:09:41;;;;;;;15.85;4.07;;;;;;;;;;5012226;28;20777;-63
2023/01/10 13:12:16;;;;;;;22.38;4.20;;;;;;;;;;5031768;28;20579;-63
2023/01/10 13:14:46;;;;;;;24.88;4.75;;;;;;;;;;5025281;28;20094;-63
2023/01/10 13:17:19;;;;;;;26.00;4.50;;;;;;;;;;5028921;28;20034;-63
2023/01/10 13:20:05;;;;;;;24.55;4.50;;;;;;;;;;5023860;28;20491;-63
2023/01/10 13:22:34;;;;;;;16.02;4.53;;;;;;;;;;5030440;28;20038;-63
2023/01/10 13:25:00;;;;;;;21.85;4.25;;;;;;;;;;5028205;28;20044;-63
2023/01/10 13:27:29;;;;;;;27.38;5.13;;;;;;;;;;5011692;28;20045;-64
2023/01/10 13:29:55;;;;;;;21.33;4.43;;;;;;;;;;5029559;28;20059;-63
2023/01/10 13:32:24;;;;;;;24.83;4.97;;;;;;;;;;5028892;28;20033;-63
2023/01/10 13:34:51;;;;;;;22.15;4.28;;;;;;;;;;5027621;28;20491;-64
2023/01/10 13:37:25;;;;;;;22.40;4.85;;;;;;;;;;5028218;28;20037;-63
2023/01/10 13:39:52;;;;;;;21.30;4.53;;;;;;;;;;5028877;28;20442;-64
2023/01/10 13:45:12;;;;;;;23.08;4.88;;;;;;;;;;5028106;28;20037;-63
2023/01/10 13:47:47;;;;;;;16.10;3.92;;;;;;;;;;5028169;28;20121;-63
2023/01/10 13:50:37;;;;;;;21.65;4.57;;;;;;;;;;5024783;28;20464;-64
2023/01/10 13:53:03;;;;;;;24.00;4.07;;;;;;;;;;5016849;28;20049;-64
2023/01/10 13:55:33;;;;;;;23.70;4.90;;;;;;;;;;5026216;28;20079;-64
2023/01/10 13:58:03;;;;;;;20.52;4.45;;;;;;;;;;5029770;28;20038;-64
2023/01/10 14:03:38;;;;;;;20.77;4.53;;;;;;;;;;5026523;28;20564;-64
2023/01/10 14:06:06;;;;;;;19.40;3.47;;;;;;;;;;5020481;28;20037;-63
2023/01/10 14:08:32;;;;;;;22.05;4.53;;;;;;;;;;5026133;28;20057;-64
2023/01/10 14:11:09;;;;;;;18.85;4.60;;;;;;;;;;5024293;28;20033;-64
2023/01/10 14:13:35;;;;;;;18.63;4.10;;;;;;;;;;5032374;28;20065;-63
2023/01/10 14:16:01;;;;;;;21.98;4.50;;;;;;;;;;5031813;28;20033;-63
2023/01/10 14:18:30;;;;;;;21.73;4.53;;;;;;;;;;5044656;22;20072;-68
2023/01/10 14:20:56;;;;;;;19.92;3.97;;;;;;;;;;5044027;28;20041;-68
2023/01/10 14:23:25;;;;;;;19.02;3.95;;;;;;;;;;5048134;28;20036;-68
2023/01/10 14:25:52;;;;;;;20.60;4.40;;;;;;;;;;5046798;28;20399;-68
2023/01/10 14:28:26;;;;;;;19.77;4.55;;;;;;;;;;5044594;28;20046;-68
2023/01/10 14:31:07;;;;;;;19.80;4.00;;;;;;;;;;5047412;28;20048;-69
2023/01/10 14:33:33;;;;;;;19.17;4.13;;;;;;;;;;5046649;28;20079;-68
2023/01/10 14:36:02;;;;;;;21.35;3.85;;;;;;;;;;5041608;28;20159;-68
2023/01/10 14:38:33;;;;;;;25.38;4.13;;;;;;;;;;5050301;28;20094;-69
2023/01/10 14:41:04;;;;;;;12.90;3.00;;;;;;;;;;5052643;28;20041;-68
2023/01/10 14:43:44;;;;;;;26.00;4.97;;;;;;;;;;5054716;28;20498;-68
2023/01/10 14:46:13;;;;;;;12.95;3.28;;;;;;;;;;5053578;28;20032;-68
2023/01/10 14:48:40;;;;;;;16.42;3.30;;;;;;;;;;5054438;28;20044;-70
2023/01/10 14:51:20;;;;;;;20.55;4.00;;;;;;;;;;5051629;28;20033;-69
2023/01/10 14:53:47;;;;;;;19.05;3.70;;;;;;;;;;5054431;28;20119;-69
2023/01/10 14:56:17;;;;;;;21.77;4.22;;;;;;;;;;5047658;28;20079;-68
2023/01/10 14:58:43;;;;;;;16.37;3.43;;;;;;;;;;5044565;28;20528;-69
2023/01/10 15:01:09;;;;;;;18.45;3.80;;;;;;;;;;5034481;28;20037;-69